sensor_id;sensor_type;location;lat;lon;timestamp;P1;durP1;ratioP1;P2;durP2;ratioP2
47539;SDS011;33280;52.152;21.052;2023-08-12T01:01:56;12.25;;;4.18;;
47539;SDS011;33280;52.152;21.052;2023-08-12T01:04:50;10.33;;;4.43;;
47539;SDS011;33280;52.152;21.052;2023-08-12T01:59:06;11.93;;;5.20;;
47539;SDS011;33280;52.152;21.052;2023-08-12T02:02:12;9.77;;;4.87;;
47539;SDS011;33280;52.152;21.052;2023-08-12T02:13:55;10.50;;;4.93;;
47539;SDS011;33280;52.152;21.052;2023-08-12T02:17:18;9.70;;;4.70;;
47539;SDS011;33280;52.152;21.052;2023-08-12T02:29:33;13.63;;;5.07;;
47539;SDS011;33280;52.152;21.052;2023-08-12T02:37:33;12.20;;;5.27;;
47539;SDS011;33280;52.152;21.052;2023-08-12T03:12:51;9.40;;;5.47;;
47539;SDS011;33280;52.152;21.052;2023-08-12T03:22:25;12.30;;;5.33;;
47539;SDS011;33280;52.152;21.052;2023-08-12T03:28:41;10.30;;;5.43;;
47539;SDS011;33280;52.152;21.052;2023-08-12T03:31:17;10.37;;;5.73;;
47539;SDS011;33280;52.152;21.052;2023-08-12T03:34:00;10.87;;;5.00;;
47539;SDS011;33280;52.152;21.052;2023-08-12T03:36:28;9.13;;;5.63;;
47539;SDS011;33280;52.152;21.052;2023-08-12T03:39:09;11.13;;;6.10;;
47539;SDS011;33280;52.152;21.052;2023-08-12T03:41:37;8.97;;;5.23;;
47539;SDS011;33280;52.152;21.052;2023-08-12T03:44:13;11.43;;;5.80;;
47539;SDS011;33280;52.152;21.052;2023-08-12T03:46:40;10.40;;;5.63;;
47539;SDS011;33280;52.152;21.052;2023-08-12T03:49:07;14.33;;;5.97;;
47539;SDS011;33280;52.152;21.052;2023-08-12T03:51:34;14.40;;;5.77;;
47539;SDS011;33280;52.152;21.052;2023-08-12T03:54:01;12.07;;;5.93;;
47539;SDS011;33280;52.152;21.052;2023-08-12T03:56:30;12.17;;;5.90;;
47539;SDS011;33280;52.152;21.052;2023-08-12T03:58:57;14.73;;;6.17;;
47539;SDS011;33280;52.152;21.052;2023-08-12T04:01:36;10.60;;;5.33;;
47539;SDS011;33280;52.152;21.052;2023-08-12T04:04:16;12.53;;;6.07;;
47539;SDS011;33280;52.152;21.052;2023-08-12T04:06:49;12.90;;;6.30;;
47539;SDS011;33280;52.152;21.052;2023-08-12T04:09:19;12.37;;;6.20;;
47539;SDS011;33280;52.152;21.052;2023-08-12T04:11:46;12.43;;;6.30;;
47539;SDS011;33280;52.152;21.052;2023-08-12T04:14:34;13.03;;;5.97;;
47539;SDS011;33280;52.152;21.052;2023-08-12T04:17:23;11.67;;;6.30;;
47539;SDS011;33280;52.152;21.052;2023-08-12T04:20:15;13.87;;;6.50;;
47539;SDS011;33280;52.152;21.052;2023-08-12T04:23:05;11.23;;;6.00;;
47539;SDS011;33280;52.152;21.052;2023-08-12T04:25:39;10.97;;;5.83;;
47539;SDS011;33280;52.152;21.052;2023-08-12T04:28:16;12.70;;;6.33;;
47539;SDS011;33280;52.152;21.052;2023-08-12T04:30:44;12.97;;;6.00;;
47539;SDS011;33280;52.152;21.052;2023-08-12T04:33:20;12.20;;;5.73;;
47539;SDS011;33280;52.152;21.052;2023-08-12T04:35:52;12.20;;;5.90;;
47539;SDS011;33280;52.152;21.052;2023-08-12T04:38:19;11.73;;;6.13;;
47539;SDS011;33280;52.152;21.052;2023-08-12T04:40:50;16.13;;;6.23;;
47539;SDS011;33280;52.152;21.052;2023-08-12T04:43:18;13.83;;;6.10;;
47539;SDS011;33280;52.152;21.052;2023-08-12T04:45:46;12.20;;;5.87;;
47539;SDS011;33280;52.152;21.052;2023-08-12T04:48:13;15.87;;;6.00;;
47539;SDS011;33280;52.152;21.052;2023-08-12T04:50:41;11.67;;;5.97;;
47539;SDS011;33280;52.152;21.052;2023-08-12T04:53:11;11.73;;;6.20;;
47539;SDS011;33280;52.152;21.052;2023-08-12T04:55:43;11.27;;;5.77;;
47539;SDS011;33280;52.152;21.052;2023-08-12T04:58:18;13.93;;;5.73;;
47539;SDS011;33280;52.152;21.052;2023-08-12T05:00:50;10.43;;;5.70;;
47539;SDS011;33280;52.152;21.052;2023-08-12T05:03:20;11.30;;;5.50;;
47539;SDS011;33280;52.152;21.052;2023-08-12T05:05:48;12.93;;;5.80;;
47539;SDS011;33280;52.152;21.052;2023-08-12T05:08:17;12.50;;;5.90;;
47539;SDS011;33280;52.152;21.052;2023-08-12T05:10:46;9.73;;;5.27;;
47539;SDS011;33280;52.152;21.052;2023-08-12T05:13:18;10.00;;;5.23;;
47539;SDS011;33280;52.152;21.052;2023-08-12T05:15:45;9.37;;;5.40;;
47539;SDS011;33280;52.152;21.052;2023-08-12T05:18:16;11.60;;;5.30;;
47539;SDS011;33280;52.152;21.052;2023-08-12T05:20:43;13.20;;;5.47;;
47539;SDS011;33280;52.152;21.052;2023-08-12T05:23:12;15.43;;;5.97;;
47539;SDS011;33280;52.152;21.052;2023-08-12T05:25:39;10.23;;;5.13;;
47539;SDS011;33280;52.152;21.052;2023-08-12T05:28:07;12.67;;;5.40;;
47539;SDS011;33280;52.152;21.052;2023-08-12T05:30:35;8.93;;;5.10;;
47539;SDS011;33280;52.152;21.052;2023-08-12T05:33:02;12.63;;;4.80;;
47539;SDS011;33280;52.152;21.052;2023-08-12T05:35:33;10.47;;;5.20;;
47539;SDS011;33280;52.152;21.052;2023-08-12T05:38:01;11.90;;;5.50;;
47539;SDS011;33280;52.152;21.052;2023-08-12T05:40:29;9.40;;;4.93;;
47539;SDS011;33280;52.152;21.052;2023-08-12T05:42:56;19.13;;;5.80;;
47539;SDS011;33280;52.152;21.052;2023-08-12T05:45:23;20.83;;;6.10;;
47539;SDS011;33280;52.152;21.052;2023-08-12T05:47:50;12.63;;;5.63;;
47539;SDS011;33280;52.152;21.052;2023-08-12T05:50:18;11.90;;;5.00;;
47539;SDS011;33280;52.152;21.052;2023-08-12T05:52:45;9.07;;;4.97;;
47539;SDS011;33280;52.152;21.052;2023-08-12T05:55:13;8.73;;;4.90;;
47539;SDS011;33280;52.152;21.052;2023-08-12T05:57:40;7.60;;;4.53;;
47539;SDS011;33280;52.152;21.052;2023-08-12T06:00:07;10.87;;;4.90;;
47539;SDS011;33280;52.152;21.052;2023-08-12T06:02:35;10.97;;;5.17;;
47539;SDS011;33280;52.152;21.052;2023-08-12T06:05:02;13.77;;;5.40;;
47539;SDS011;33280;52.152;21.052;2023-08-12T06:07:29;8.97;;;4.77;;
47539;SDS011;33280;52.152;21.052;2023-08-12T06:09:56;13.93;;;5.60;;
47539;SDS011;33280;52.152;21.052;2023-08-12T06:12:23;9.83;;;5.17;;
47539;SDS011;33280;52.152;21.052;2023-08-12T06:14:50;15.23;;;5.93;;
47539;SDS011;33280;52.152;21.052;2023-08-12T06:17:17;13.27;;;4.73;;
47539;SDS011;33280;52.152;21.052;2023-08-12T06:19:44;9.07;;;4.53;;
47539;SDS011;33280;52.152;21.052;2023-08-12T06:22:11;8.40;;;4.40;;
47539;SDS011;33280;52.152;21.052;2023-08-12T06:24:39;7.73;;;4.27;;
47539;SDS011;33280;52.152;21.052;2023-08-12T06:27:06;7.73;;;3.70;;
47539;SDS011;33280;52.152;21.052;2023-08-12T06:29:33;5.93;;;3.73;;
47539;SDS011;33280;52.152;21.052;2023-08-12T06:32:01;11.43;;;4.63;;
47539;SDS011;33280;52.152;21.052;2023-08-12T06:34:28;6.63;;;3.67;;
47539;SDS011;33280;52.152;21.052;2023-08-12T06:36:55;19.47;;;6.20;;
47539;SDS011;33280;52.152;21.052;2023-08-12T06:39:22;6.07;;;3.27;;
47539;SDS011;33280;52.152;21.052;2023-08-12T06:41:49;6.43;;;3.43;;
47539;SDS011;33280;52.152;21.052;2023-08-12T06:44:18;7.73;;;3.90;;
47539;SDS011;33280;52.152;21.052;2023-08-12T06:46:45;5.77;;;3.30;;
47539;SDS011;33280;52.152;21.052;2023-08-12T06:49:13;6.60;;;3.33;;
47539;SDS011;33280;52.152;21.052;2023-08-12T06:51:40;7.13;;;3.40;;
47539;SDS011;33280;52.152;21.052;2023-08-12T06:54:07;4.93;;;2.80;;
47539;SDS011;33280;52.152;21.052;2023-08-12T06:56:34;10.23;;;3.87;;
47539;SDS011;33280;52.152;21.052;2023-08-12T06:59:01;5.63;;;3.00;;
47539;SDS011;33280;52.152;21.052;2023-08-12T07:01:28;4.80;;;3.00;;
47539;SDS011;33280;52.152;21.052;2023-08-12T07:03:56;8.37;;;3.23;;
47539;SDS011;33280;52.152;21.052;2023-08-12T07:06:23;5.87;;;3.03;;
47539;SDS011;33280;52.152;21.052;2023-08-12T07:08:50;13.47;;;3.60;;
47539;SDS011;33280;52.152;21.052;2023-08-12T07:11:17;7.80;;;3.10;;
47539;SDS011;33280;52.152;21.052;2023-08-12T07:13:44;4.53;;;2.30;;
47539;SDS011;33280;52.152;21.052;2023-08-12T07:16:13;3.47;;;2.20;;
47539;SDS011;33280;52.152;21.052;2023-08-12T07:18:40;7.57;;;2.70;;
47539;SDS011;33280;52.152;21.052;2023-08-12T07:21:07;8.37;;;2.50;;
47539;SDS011;33280;52.152;21.052;2023-08-12T07:23:34;5.70;;;1.90;;
47539;SDS011;33280;52.152;21.052;2023-08-12T07:26:01;4.63;;;2.10;;
47539;SDS011;33280;52.152;21.052;2023-08-12T07:28:29;4.90;;;1.97;;
47539;SDS011;33280;52.152;21.052;2023-08-12T07:30:56;5.73;;;1.90;;
47539;SDS011;33280;52.152;21.052;2023-08-12T07:33:23;4.90;;;1.87;;
47539;SDS011;33280;52.152;21.052;2023-08-12T07:35:51;3.83;;;1.90;;
47539;SDS011;33280;52.152;21.052;2023-08-12T07:38:18;5.13;;;2.03;;
47539;SDS011;33280;52.152;21.052;2023-08-12T07:40:45;7.33;;;2.40;;
47539;SDS011;33280;52.152;21.052;2023-08-12T07:43:12;4.77;;;1.90;;
47539;SDS011;33280;52.152;21.052;2023-08-12T07:45:39;5.23;;;1.80;;
47539;SDS011;33280;52.152;21.052;2023-08-12T07:48:07;5.50;;;2.00;;
47539;SDS011;33280;52.152;21.052;2023-08-12T07:50:34;7.77;;;2.20;;
47539;SDS011;33280;52.152;21.052;2023-08-12T07:53:01;4.60;;;2.47;;
47539;SDS011;33280;52.152;21.052;2023-08-12T07:55:29;3.57;;;1.97;;
47539;SDS011;33280;52.152;21.052;2023-08-12T07:57:57;5.27;;;2.27;;
47539;SDS011;33280;52.152;21.052;2023-08-12T08:00:24;4.90;;;2.20;;
47539;SDS011;33280;52.152;21.052;2023-08-12T08:02:51;5.90;;;1.70;;
47539;SDS011;33280;52.152;21.052;2023-08-12T08:05:18;4.23;;;2.10;;
47539;SDS011;33280;52.152;21.052;2023-08-12T08:07:49;2.57;;;1.80;;
47539;SDS011;33280;52.152;21.052;2023-08-12T08:10:16;2.77;;;1.80;;
47539;SDS011;33280;52.152;21.052;2023-08-12T08:12:43;5.20;;;2.30;;
47539;SDS011;33280;52.152;21.052;2023-08-12T08:15:11;6.07;;;2.37;;
47539;SDS011;33280;52.152;21.052;2023-08-12T08:17:38;3.72;;;1.95;;
47539;SDS011;33280;52.152;21.052;2023-08-12T08:20:09;3.10;;;2.17;;
47539;SDS011;33280;52.152;21.052;2023-08-12T08:22:37;9.32;;;2.70;;
47539;SDS011;33280;52.152;21.052;2023-08-12T08:25:04;5.07;;;1.90;;
47539;SDS011;33280;52.152;21.052;2023-08-12T08:27:32;2.80;;;1.77;;
47539;SDS011;33280;52.152;21.052;2023-08-12T08:29:59;3.17;;;1.80;;
47539;SDS011;33280;52.152;21.052;2023-08-12T08:32:27;2.42;;;1.70;;
47539;SDS011;33280;52.152;21.052;2023-08-12T08:34:54;4.65;;;1.50;;
47539;SDS011;33280;52.152;21.052;2023-08-12T08:37:21;4.78;;;1.73;;
47539;SDS011;33280;52.152;21.052;2023-08-12T08:39:48;5.38;;;1.83;;
47539;SDS011;33280;52.152;21.052;2023-08-12T08:42:15;3.13;;;1.73;;
47539;SDS011;33280;52.152;21.052;2023-08-12T08:44:45;3.85;;;1.60;;
47539;SDS011;33280;52.152;21.052;2023-08-12T08:47:16;3.17;;;1.50;;
47539;SDS011;33280;52.152;21.052;2023-08-12T08:49:46;6.63;;;1.58;;
47539;SDS011;33280;52.152;21.052;2023-08-12T08:52:13;16.55;;;3.97;;
47539;SDS011;33280;52.152;21.052;2023-08-12T08:54:41;10.93;;;2.30;;
47539;SDS011;33280;52.152;21.052;2023-08-12T08:57:09;4.18;;;2.10;;
47539;SDS011;33280;52.152;21.052;2023-08-12T08:59:45;5.25;;;1.65;;
47539;SDS011;33280;52.152;21.052;2023-08-12T09:02:15;9.52;;;2.30;;
47539;SDS011;33280;52.152;21.052;2023-08-12T09:04:46;5.43;;;1.73;;
47539;SDS011;33280;52.152;21.052;2023-08-12T09:07:13;4.32;;;1.67;;
47539;SDS011;33280;52.152;21.052;2023-08-12T09:09:44;3.55;;;1.70;;
47539;SDS011;33280;52.152;21.052;2023-08-12T09:12:15;7.03;;;2.47;;
47539;SDS011;33280;52.152;21.052;2023-08-12T09:14:43;5.72;;;1.83;;
47539;SDS011;33280;52.152;21.052;2023-08-12T09:17:10;4.57;;;1.60;;
47539;SDS011;33280;52.152;21.052;2023-08-12T09:19:38;4.82;;;1.63;;
47539;SDS011;33280;52.152;21.052;2023-08-12T09:22:05;4.50;;;1.70;;
47539;SDS011;33280;52.152;21.052;2023-08-12T09:24:36;3.35;;;1.70;;
47539;SDS011;33280;52.152;21.052;2023-08-12T09:27:04;4.25;;;2.20;;
47539;SDS011;33280;52.152;21.052;2023-08-12T09:29:31;5.00;;;1.75;;
47539;SDS011;33280;52.152;21.052;2023-08-12T09:32:09;2.65;;;1.70;;
47539;SDS011;33280;52.152;21.052;2023-08-12T09:34:47;3.47;;;1.63;;
47539;SDS011;33280;52.152;21.052;2023-08-12T09:37:15;4.60;;;1.73;;
47539;SDS011;33280;52.152;21.052;2023-08-12T09:39:42;4.88;;;1.80;;
47539;SDS011;33280;52.152;21.052;2023-08-12T09:42:11;3.53;;;1.60;;
47539;SDS011;33280;52.152;21.052;2023-08-12T09:44:39;5.00;;;1.70;;
47539;SDS011;33280;52.152;21.052;2023-08-12T09:47:07;4.00;;;1.80;;
47539;SDS011;33280;52.152;21.052;2023-08-12T09:49:35;3.42;;;1.60;;
47539;SDS011;33280;52.152;21.052;2023-08-12T09:52:03;5.22;;;1.83;;
47539;SDS011;33280;52.152;21.052;2023-08-12T09:54:31;3.50;;;1.73;;
47539;SDS011;33280;52.152;21.052;2023-08-12T09:56:59;3.70;;;1.60;;
47539;SDS011;33280;52.152;21.052;2023-08-12T09:59:29;6.03;;;2.47;;
47539;SDS011;33280;52.152;21.052;2023-08-12T10:01:58;4.72;;;1.65;;
47539;SDS011;33280;52.152;21.052;2023-08-12T10:04:32;5.75;;;1.52;;
47539;SDS011;33280;52.152;21.052;2023-08-12T10:07:07;5.57;;;2.10;;
47539;SDS011;33280;52.152;21.052;2023-08-12T10:09:37;4.35;;;1.83;;
47539;SDS011;33280;52.152;21.052;2023-08-12T10:12:08;3.50;;;1.80;;
47539;SDS011;33280;52.152;21.052;2023-08-12T10:14:37;3.13;;;1.50;;
47539;SDS011;33280;52.152;21.052;2023-08-12T10:17:05;5.47;;;1.90;;
47539;SDS011;33280;52.152;21.052;2023-08-12T10:19:33;3.72;;;1.70;;
47539;SDS011;33280;52.152;21.052;2023-08-12T10:22:02;2.83;;;1.40;;
47539;SDS011;33280;52.152;21.052;2023-08-12T10:24:30;5.85;;;1.80;;
47539;SDS011;33280;52.152;21.052;2023-08-12T10:27:00;5.78;;;1.90;;
47539;SDS011;33280;52.152;21.052;2023-08-12T10:29:29;3.10;;;1.52;;
47539;SDS011;33280;52.152;21.052;2023-08-12T10:31:57;8.30;;;2.38;;
47539;SDS011;33280;52.152;21.052;2023-08-12T10:34:24;5.13;;;1.90;;
47539;SDS011;33280;52.152;21.052;2023-08-12T10:36:55;4.13;;;1.88;;
47539;SDS011;33280;52.152;21.052;2023-08-12T10:39:27;4.75;;;1.92;;
47539;SDS011;33280;52.152;21.052;2023-08-12T10:41:57;3.08;;;1.80;;
47539;SDS011;33280;52.152;21.052;2023-08-12T10:47:17;5.85;;;1.70;;
47539;SDS011;33280;52.152;21.052;2023-08-12T10:49:48;4.13;;;1.80;;
47539;SDS011;33280;52.152;21.052;2023-08-12T10:52:19;2.83;;;1.60;;
47539;SDS011;33280;52.152;21.052;2023-08-12T10:58:02;2.58;;;1.60;;
47539;SDS011;33280;52.152;21.052;2023-08-12T11:00:35;3.90;;;1.80;;
47539;SDS011;33280;52.152;21.052;2023-08-12T11:03:03;5.38;;;1.80;;
47539;SDS011;33280;52.152;21.052;2023-08-12T11:05:35;6.68;;;1.67;;
47539;SDS011;33280;52.152;21.052;2023-08-12T11:08:04;3.72;;;1.75;;
47539;SDS011;33280;52.152;21.052;2023-08-12T11:10:33;3.53;;;1.70;;
47539;SDS011;33280;52.152;21.052;2023-08-12T11:13:02;3.63;;;1.83;;
47539;SDS011;33280;52.152;21.052;2023-08-12T11:17:59;7.10;;;1.90;;
47539;SDS011;33280;52.152;21.052;2023-08-12T11:20:30;6.75;;;1.98;;
47539;SDS011;33280;52.152;21.052;2023-08-12T11:23:02;4.68;;;2.05;;
47539;SDS011;33280;52.152;21.052;2023-08-12T11:25:30;8.95;;;2.13;;
47539;SDS011;33280;52.152;21.052;2023-08-12T11:27:58;3.70;;;1.65;;
47539;SDS011;33280;52.152;21.052;2023-08-12T11:30:26;4.93;;;1.98;;
47539;SDS011;33280;52.152;21.052;2023-08-12T11:32:58;6.30;;;1.92;;
47539;SDS011;33280;52.152;21.052;2023-08-12T11:35:26;3.65;;;1.90;;
47539;SDS011;33280;52.152;21.052;2023-08-12T11:37:54;4.28;;;1.83;;
47539;SDS011;33280;52.152;21.052;2023-08-12T11:40:23;4.55;;;1.70;;
47539;SDS011;33280;52.152;21.052;2023-08-12T11:42:51;4.13;;;1.75;;
47539;SDS011;33280;52.152;21.052;2023-08-12T11:45:20;3.67;;;1.73;;
47539;SDS011;33280;52.152;21.052;2023-08-12T11:47:54;5.03;;;2.00;;
47539;SDS011;33280;52.152;21.052;2023-08-12T11:50:24;5.47;;;1.88;;
47539;SDS011;33280;52.152;21.052;2023-08-12T11:52:53;3.05;;;1.80;;
47539;SDS011;33280;52.152;21.052;2023-08-12T11:55:22;4.97;;;2.05;;
47539;SDS011;33280;52.152;21.052;2023-08-12T11:57:50;3.78;;;1.70;;
47539;SDS011;33280;52.152;21.052;2023-08-12T12:00:19;4.32;;;1.90;;
47539;SDS011;33280;52.152;21.052;2023-08-12T12:02:54;7.13;;;2.20;;
47539;SDS011;33280;52.152;21.052;2023-08-12T12:05:23;3.85;;;1.67;;
47539;SDS011;33280;52.152;21.052;2023-08-12T12:07:53;3.58;;;1.90;;
47539;SDS011;33280;52.152;21.052;2023-08-12T12:10:25;4.28;;;2.15;;
47539;SDS011;33280;52.152;21.052;2023-08-12T12:12:58;5.15;;;1.73;;
47539;SDS011;33280;52.152;21.052;2023-08-12T12:15:27;4.88;;;1.95;;
47539;SDS011;33280;52.152;21.052;2023-08-12T12:17:54;2.75;;;1.67;;
47539;SDS011;33280;52.152;21.052;2023-08-12T12:20:22;4.22;;;2.05;;
47539;SDS011;33280;52.152;21.052;2023-08-12T12:22:49;4.30;;;1.90;;
47539;SDS011;33280;52.152;21.052;2023-08-12T12:25:17;3.33;;;1.75;;
47539;SDS011;33280;52.152;21.052;2023-08-12T12:27:47;3.25;;;1.80;;
47539;SDS011;33280;52.152;21.052;2023-08-12T12:30:15;5.00;;;1.80;;
47539;SDS011;33280;52.152;21.052;2023-08-12T12:32:43;4.80;;;1.90;;
47539;SDS011;33280;52.152;21.052;2023-08-12T12:35:11;4.60;;;1.95;;
47539;SDS011;33280;52.152;21.052;2023-08-12T12:37:39;3.50;;;1.50;;
47539;SDS011;33280;52.152;21.052;2023-08-12T12:40:08;3.83;;;1.65;;
47539;SDS011;33280;52.152;21.052;2023-08-12T12:42:36;3.85;;;1.77;;
47539;SDS011;33280;52.152;21.052;2023-08-12T12:45:05;4.65;;;1.90;;
47539;SDS011;33280;52.152;21.052;2023-08-12T12:47:33;5.72;;;1.70;;
47539;SDS011;33280;52.152;21.052;2023-08-12T12:50:00;6.25;;;2.03;;
47539;SDS011;33280;52.152;21.052;2023-08-12T12:52:27;3.38;;;2.10;;
47539;SDS011;33280;52.152;21.052;2023-08-12T12:54:54;4.38;;;2.03;;
47539;SDS011;33280;52.152;21.052;2023-08-12T12:57:24;2.97;;;1.70;;
47539;SDS011;33280;52.152;21.052;2023-08-12T12:59:51;2.97;;;1.63;;
47539;SDS011;33280;52.152;21.052;2023-08-12T13:02:18;7.05;;;2.10;;
47539;SDS011;33280;52.152;21.052;2023-08-12T13:04:45;5.82;;;1.90;;
47539;SDS011;33280;52.152;21.052;2023-08-12T13:07:13;4.57;;;2.03;;
47539;SDS011;33280;52.152;21.052;2023-08-12T13:09:42;3.00;;;1.50;;
47539;SDS011;33280;52.152;21.052;2023-08-12T13:12:09;4.13;;;1.80;;
47539;SDS011;33280;52.152;21.052;2023-08-12T13:14:36;5.32;;;1.80;;
47539;SDS011;33280;52.152;21.052;2023-08-12T13:17:04;3.70;;;1.73;;
47539;SDS011;33280;52.152;21.052;2023-08-12T13:19:31;5.32;;;1.80;;
47539;SDS011;33280;52.152;21.052;2023-08-12T13:21:58;2.85;;;1.80;;
47539;SDS011;33280;52.152;21.052;2023-08-12T13:24:26;4.65;;;2.05;;
47539;SDS011;33280;52.152;21.052;2023-08-12T13:27:01;3.83;;;1.90;;
47539;SDS011;33280;52.152;21.052;2023-08-12T13:29:28;2.50;;;1.90;;
47539;SDS011;33280;52.152;21.052;2023-08-12T13:31:57;4.25;;;1.90;;
47539;SDS011;33280;52.152;21.052;2023-08-12T13:34:24;5.05;;;1.85;;
47539;SDS011;33280;52.152;21.052;2023-08-12T13:36:51;4.20;;;1.73;;
47539;SDS011;33280;52.152;21.052;2023-08-12T13:39:19;2.92;;;1.75;;
47539;SDS011;33280;52.152;21.052;2023-08-12T13:41:47;2.65;;;1.73;;
47539;SDS011;33280;52.152;21.052;2023-08-12T13:44:14;3.25;;;1.70;;
47539;SDS011;33280;52.152;21.052;2023-08-12T13:46:41;5.95;;;2.10;;
47539;SDS011;33280;52.152;21.052;2023-08-12T13:49:08;5.68;;;2.08;;
47539;SDS011;33280;52.152;21.052;2023-08-12T13:51:35;4.15;;;1.75;;
47539;SDS011;33280;52.152;21.052;2023-08-12T13:54:03;6.00;;;2.17;;
47539;SDS011;33280;52.152;21.052;2023-08-12T13:56:30;4.30;;;1.65;;
47539;SDS011;33280;52.152;21.052;2023-08-12T13:58:57;3.35;;;1.60;;
47539;SDS011;33280;52.152;21.052;2023-08-12T14:01:24;3.70;;;1.80;;
47539;SDS011;33280;52.152;21.052;2023-08-12T14:03:52;3.33;;;1.73;;
47539;SDS011;33280;52.152;21.052;2023-08-12T14:06:19;2.90;;;1.63;;
47539;SDS011;33280;52.152;21.052;2023-08-12T14:08:47;4.07;;;1.70;;
47539;SDS011;33280;52.152;21.052;2023-08-12T14:11:15;7.22;;;1.73;;
47539;SDS011;33280;52.152;21.052;2023-08-12T14:13:42;4.43;;;1.50;;
47539;SDS011;33280;52.152;21.052;2023-08-12T14:16:09;4.32;;;1.80;;
47539;SDS011;33280;52.152;21.052;2023-08-12T14:18:37;4.45;;;1.77;;
47539;SDS011;33280;52.152;21.052;2023-08-12T14:21:04;8.23;;;1.88;;
47539;SDS011;33280;52.152;21.052;2023-08-12T14:23:31;4.53;;;1.70;;
47539;SDS011;33280;52.152;21.052;2023-08-12T14:25:58;3.00;;;1.70;;
47539;SDS011;33280;52.152;21.052;2023-08-12T14:28:26;3.65;;;1.70;;
47539;SDS011;33280;52.152;21.052;2023-08-12T14:30:53;5.43;;;1.88;;
47539;SDS011;33280;52.152;21.052;2023-08-12T14:33:21;4.32;;;1.70;;
47539;SDS011;33280;52.152;21.052;2023-08-12T14:35:51;3.47;;;1.80;;
47539;SDS011;33280;52.152;21.052;2023-08-12T14:38:20;3.03;;;1.50;;
47539;SDS011;33280;52.152;21.052;2023-08-12T14:40:48;2.58;;;1.50;;
47539;SDS011;33280;52.152;21.052;2023-08-12T14:43:15;4.22;;;1.92;;
47539;SDS011;33280;52.152;21.052;2023-08-12T14:45:46;2.58;;;1.70;;
47539;SDS011;33280;52.152;21.052;2023-08-12T14:48:14;3.08;;;1.80;;
47539;SDS011;33280;52.152;21.052;2023-08-12T14:50:43;4.13;;;1.90;;
47539;SDS011;33280;52.152;21.052;2023-08-12T14:53:11;5.65;;;1.77;;
47539;SDS011;33280;52.152;21.052;2023-08-12T14:55:38;3.72;;;1.88;;
47539;SDS011;33280;52.152;21.052;2023-08-12T14:58:05;3.40;;;1.55;;
47539;SDS011;33280;52.152;21.052;2023-08-12T15:00:32;4.70;;;1.75;;
47539;SDS011;33280;52.152;21.052;2023-08-12T15:03:00;3.65;;;1.67;;
47539;SDS011;33280;52.152;21.052;2023-08-12T15:05:28;6.28;;;2.20;;
47539;SDS011;33280;52.152;21.052;2023-08-12T15:07:55;4.18;;;2.03;;
47539;SDS011;33280;52.152;21.052;2023-08-12T15:10:22;3.50;;;1.60;;
47539;SDS011;33280;52.152;21.052;2023-08-12T15:12:50;3.08;;;1.83;;
47539;SDS011;33280;52.152;21.052;2023-08-12T15:15:17;3.58;;;1.88;;
47539;SDS011;33280;52.152;21.052;2023-08-12T15:17:44;3.35;;;1.77;;
47539;SDS011;33280;52.152;21.052;2023-08-12T15:20:11;3.22;;;1.75;;
47539;SDS011;33280;52.152;21.052;2023-08-12T15:22:39;3.22;;;1.48;;
47539;SDS011;33280;52.152;21.052;2023-08-12T15:25:07;2.92;;;1.73;;
47539;SDS011;33280;52.152;21.052;2023-08-12T15:27:34;3.78;;;1.58;;
47539;SDS011;33280;52.152;21.052;2023-08-12T15:30:02;3.88;;;1.80;;
47539;SDS011;33280;52.152;21.052;2023-08-12T15:32:29;6.75;;;2.00;;
47539;SDS011;33280;52.152;21.052;2023-08-12T15:35:00;2.55;;;1.67;;
47539;SDS011;33280;52.152;21.052;2023-08-12T15:37:27;4.55;;;1.80;;
47539;SDS011;33280;52.152;21.052;2023-08-12T15:39:55;3.05;;;1.65;;
47539;SDS011;33280;52.152;21.052;2023-08-12T15:42:23;2.75;;;1.67;;
47539;SDS011;33280;52.152;21.052;2023-08-12T15:44:50;2.35;;;1.70;;
47539;SDS011;33280;52.152;21.052;2023-08-12T15:47:17;7.28;;;2.13;;
47539;SDS011;33280;52.152;21.052;2023-08-12T15:49:44;5.78;;;2.30;;
47539;SDS011;33280;52.152;21.052;2023-08-12T15:52:11;3.60;;;1.90;;
47539;SDS011;33280;52.152;21.052;2023-08-12T15:54:39;9.63;;;1.70;;
47539;SDS011;33280;52.152;21.052;2023-08-12T15:57:06;4.45;;;1.80;;
47539;SDS011;33280;52.152;21.052;2023-08-12T15:59:33;3.25;;;1.70;;
47539;SDS011;33280;52.152;21.052;2023-08-12T16:02:01;3.08;;;2.00;;
47539;SDS011;33280;52.152;21.052;2023-08-12T16:04:28;3.67;;;1.58;;
47539;SDS011;33280;52.152;21.052;2023-08-12T16:06:55;5.05;;;1.80;;
47539;SDS011;33280;52.152;21.052;2023-08-12T16:09:22;3.28;;;1.80;;
47539;SDS011;33280;52.152;21.052;2023-08-12T16:11:49;7.82;;;2.30;;
47539;SDS011;33280;52.152;21.052;2023-08-12T16:14:16;3.95;;;1.80;;
47539;SDS011;33280;52.152;21.052;2023-08-12T16:16:43;4.25;;;2.10;;
47539;SDS011;33280;52.152;21.052;2023-08-12T16:19:11;6.10;;;2.03;;
47539;SDS011;33280;52.152;21.052;2023-08-12T16:21:41;4.72;;;1.80;;
47539;SDS011;33280;52.152;21.052;2023-08-12T16:24:08;4.65;;;1.75;;
47539;SDS011;33280;52.152;21.052;2023-08-12T16:26:35;3.03;;;1.60;;
47539;SDS011;33280;52.152;21.052;2023-08-12T16:29:02;4.35;;;2.17;;
47539;SDS011;33280;52.152;21.052;2023-08-12T16:31:30;7.10;;;2.08;;
47539;SDS011;33280;52.152;21.052;2023-08-12T16:33:57;5.07;;;1.80;;
47539;SDS011;33280;52.152;21.052;2023-08-12T16:36:25;4.32;;;2.28;;
47539;SDS011;33280;52.152;21.052;2023-08-12T16:38:52;5.03;;;1.92;;
47539;SDS011;33280;52.152;21.052;2023-08-12T16:41:19;3.63;;;1.92;;
47539;SDS011;33280;52.152;21.052;2023-08-12T16:43:46;7.13;;;1.98;;
47539;SDS011;33280;52.152;21.052;2023-08-12T16:46:13;4.10;;;2.00;;
47539;SDS011;33280;52.152;21.052;2023-08-12T16:48:40;2.53;;;2.03;;
47539;SDS011;33280;52.152;21.052;2023-08-12T16:51:07;3.20;;;2.03;;
47539;SDS011;33280;52.152;21.052;2023-08-12T16:53:35;7.68;;;2.22;;
47539;SDS011;33280;52.152;21.052;2023-08-12T16:56:02;5.50;;;2.42;;
47539;SDS011;33280;52.152;21.052;2023-08-12T16:58:30;6.80;;;2.40;;
47539;SDS011;33280;52.152;21.052;2023-08-12T17:00:59;3.75;;;2.10;;
47539;SDS011;33280;52.152;21.052;2023-08-12T17:03:26;4.50;;;2.22;;
47539;SDS011;33280;52.152;21.052;2023-08-12T17:05:54;3.72;;;2.13;;
47539;SDS011;33280;52.152;21.052;2023-08-12T17:08:21;4.13;;;2.03;;
47539;SDS011;33280;52.152;21.052;2023-08-12T17:10:48;5.43;;;2.53;;
47539;SDS011;33280;52.152;21.052;2023-08-12T17:13:15;4.43;;;2.22;;
47539;SDS011;33280;52.152;21.052;2023-08-12T17:15:45;4.50;;;2.20;;
47539;SDS011;33280;52.152;21.052;2023-08-12T17:18:12;4.47;;;2.28;;
47539;SDS011;33280;52.152;21.052;2023-08-12T17:20:41;4.50;;;2.25;;
47539;SDS011;33280;52.152;21.052;2023-08-12T17:23:08;5.97;;;2.33;;
47539;SDS011;33280;52.152;21.052;2023-08-12T17:25:35;4.82;;;2.55;;
47539;SDS011;33280;52.152;21.052;2023-08-12T17:28:03;5.60;;;2.45;;
47539;SDS011;33280;52.152;21.052;2023-08-12T17:30:30;4.40;;;2.42;;
47539;SDS011;33280;52.152;21.052;2023-08-12T17:32:57;5.43;;;2.67;;
47539;SDS011;33280;52.152;21.052;2023-08-12T17:35:25;3.60;;;2.28;;
47539;SDS011;33280;52.152;21.052;2023-08-12T17:37:52;3.85;;;2.40;;
47539;SDS011;33280;52.152;21.052;2023-08-12T17:40:20;5.05;;;2.63;;
47539;SDS011;33280;52.152;21.052;2023-08-12T17:42:48;4.63;;;2.58;;
47539;SDS011;33280;52.152;21.052;2023-08-12T17:45:16;7.38;;;2.72;;
47539;SDS011;33280;52.152;21.052;2023-08-12T17:48:05;10.73;;;3.40;;
47539;SDS011;33280;52.152;21.052;2023-08-12T17:50:32;5.70;;;2.47;;